Winedale's Hourly Summary for Friday, May 11, 2018
Hour Temp
(f)
RH
(%)
Solar Rad.
(MJ/m2)
Rainfall
(in)
Wind
(mph)
5/11/2018 12:00 AM 71 80 0 0 4.06
5/11/2018 1:00 AM 70 87 0 0 3.68
5/11/2018 2:00 AM 69 93 0 0 3.94
5/11/2018 3:00 AM 69 95 0 0 3.47
5/11/2018 4:00 AM 69 97 0 0 3.27
5/11/2018 5:00 AM 69 97 0 0 4.58
5/11/2018 6:00 AM 70 95 0 0 4.88
5/11/2018 7:00 AM 70 93 0.01 0 6.11
5/11/2018 8:00 AM 71 90 0.26 0 5.05
5/11/2018 9:00 AM 73 77 0.99 0 6.24
5/11/2018 10:00 AM 76 68 1.7 0 8.43
5/11/2018 11:00 AM 79 57 2.43 0 8.4
5/11/2018 12:00 PM 82 48 3 0 8.37
5/11/2018 1:00 PM 83 47 3.05 0 8.59
5/11/2018 2:00 PM 85 38 2.83 0 8.51
5/11/2018 3:00 PM 86 37 2.5 0 8
5/11/2018 4:00 PM 87 35 2.69 0 8.15
5/11/2018 5:00 PM 88 34 2.13 0 7.75
5/11/2018 6:00 PM 87 33 0.66 0 7.91
5/11/2018 7:00 PM 85 35 0.85 0 7.55
5/11/2018 8:00 PM 82 45 0.27 0 6.23
5/11/2018 9:00 PM 78 56 0.01 0 5.23
5/11/2018 10:00 PM 76 68 0 0 4.72
5/11/2018 11:00 PM 74 77 0 0 4.3
Data Summary 77 65 23.38 0.00 6.14